createdAt,value
2018-04-27T00:00:49.240Z,0.00
2018-04-27T00:01:49.148Z,0.00
2018-04-27T00:02:49.164Z,0.00
2018-04-27T00:03:49.082Z,0.00
2018-04-27T00:04:49.076Z,0.00
2018-04-27T00:05:48.997Z,0.00
2018-04-27T00:06:48.957Z,0.00
2018-04-27T00:07:48.907Z,0.00
2018-04-27T00:08:48.891Z,0.00
2018-04-27T00:09:48.813Z,0.00
2018-04-27T00:10:48.810Z,0.00
2018-04-27T00:11:48.734Z,0.00
2018-04-27T00:12:48.700Z,0.00
2018-04-27T00:13:48.652Z,0.00
2018-04-27T00:14:48.613Z,0.00
2018-04-27T00:15:48.587Z,0.00
2018-04-27T00:16:48.530Z,0.00
2018-04-27T00:17:48.473Z,0.00
2018-04-27T00:18:48.435Z,0.00
2018-04-27T00:19:48.389Z,0.00
2018-04-27T00:20:48.392Z,0.00
2018-04-27T00:21:48.314Z,0.00
2018-04-27T00:22:48.262Z,0.00
2018-04-27T00:23:48.305Z,0.00
2018-04-27T00:24:48.213Z,0.00
2018-04-27T00:25:48.168Z,0.00
2018-04-27T00:26:48.080Z,0.00
2018-04-27T00:27:48.096Z,0.00
2018-04-27T00:28:48.033Z,0.00
2018-04-27T00:29:47.997Z,0.00
2018-04-27T00:30:47.942Z,0.00
2018-04-27T00:31:47.914Z,0.00
2018-04-27T00:32:47.896Z,0.00
2018-04-27T00:33:47.798Z,0.00
2018-04-27T00:34:47.781Z,0.00
2018-04-27T00:35:47.704Z,0.00
2018-04-27T00:36:47.696Z,0.00
2018-04-27T00:37:47.632Z,0.00
2018-04-27T00:38:47.579Z,0.00
2018-04-27T00:39:47.537Z,0.00
2018-04-27T00:40:47.496Z,0.00
2018-04-27T00:41:47.477Z,0.00
2018-04-27T00:42:47.403Z,0.00
2018-04-27T00:43:47.373Z,0.00
2018-04-27T00:44:47.342Z,0.00
2018-04-27T00:45:47.325Z,0.00
2018-04-27T00:46:47.302Z,0.00
2018-04-27T00:47:48.147Z,0.00
2018-04-27T00:48:47.201Z,0.00
2018-04-27T00:49:47.108Z,0.00
2018-04-27T00:50:47.079Z,0.00
2018-04-27T00:51:47.067Z,0.00
2018-04-27T00:52:46.983Z,0.00
2018-04-27T00:53:46.946Z,0.00
2018-04-27T00:54:46.901Z,0.00
2018-04-27T00:55:46.854Z,0.00
2018-04-27T00:56:46.838Z,0.00
2018-04-27T00:57:46.793Z,0.00
2018-04-27T00:58:46.746Z,0.00
2018-04-27T00:59:46.697Z,0.00
2018-04-27T01:00:46.678Z,0.00
2018-04-27T01:01:46.656Z,0.00
2018-04-27T01:02:46.571Z,0.00
2018-04-27T01:03:46.550Z,0.00
2018-04-27T01:04:46.503Z,0.00
2018-04-27T01:05:46.451Z,0.00
2018-04-27T01:06:46.428Z,0.00
2018-04-27T01:07:46.373Z,0.00
2018-04-27T01:08:46.310Z,0.00
2018-04-27T01:09:46.271Z,0.00
2018-04-27T01:10:46.223Z,0.00
2018-04-27T01:11:46.194Z,0.00
2018-04-27T01:12:46.123Z,0.00
2018-04-27T01:13:46.080Z,0.00
2018-04-27T01:14:46.049Z,0.00
2018-04-27T01:15:46.017Z,0.00
2018-04-27T01:16:46.002Z,0.00
2018-04-27T01:17:45.922Z,0.00
2018-04-27T01:18:45.884Z,0.00
2018-04-27T01:19:45.828Z,0.00
2018-04-27T01:20:45.826Z,0.00
2018-04-27T01:21:45.750Z,0.00
2018-04-27T01:22:45.698Z,0.00
2018-04-27T01:23:45.674Z,0.00
2018-04-27T01:24:45.620Z,0.00
2018-04-27T01:25:45.622Z,0.00
2018-04-27T01:26:45.560Z,0.00
2018-04-27T01:27:45.497Z,0.00
2018-04-27T01:28:45.450Z,0.00
2018-04-27T01:29:45.432Z,0.00
2018-04-27T01:30:45.388Z,0.00
2018-04-27T01:31:45.333Z,0.00
2018-04-27T01:32:45.273Z,0.00
2018-04-27T01:33:45.266Z,0.00
2018-04-27T01:34:45.194Z,0.00
2018-04-27T01:35:45.183Z,0.00
2018-04-27T01:36:45.113Z,0.00
2018-04-27T01:37:45.086Z,0.00
2018-04-27T01:38:45.017Z,0.00
2018-04-27T01:39:44.977Z,0.00
2018-04-27T01:40:44.969Z,0.00
2018-04-27T01:41:44.922Z,0.00
2018-04-27T01:42:44.849Z,0.00
2018-04-27T01:43:44.821Z,0.00
2018-04-27T01:44:44.772Z,0.00
2018-04-27T01:45:44.741Z,0.00
2018-04-27T01:46:44.680Z,0.00
2018-04-27T01:47:44.644Z,0.00
2018-04-27T01:48:44.602Z,0.00
2018-04-27T01:49:44.561Z,0.00
2018-04-27T01:50:44.557Z,0.00
2018-04-27T01:51:44.468Z,0.00
2018-04-27T01:52:44.436Z,0.00
2018-04-27T01:53:44.382Z,0.00
2018-04-27T01:54:44.366Z,0.00
2018-04-27T01:55:44.306Z,0.00
2018-04-27T01:56:44.275Z,0.00
2018-04-27T01:57:44.226Z,0.00
2018-04-27T01:58:44.173Z,0.00
2018-04-27T01:59:44.159Z,0.00
2018-04-27T02:00:44.096Z,0.00
2018-04-27T02:01:44.046Z,0.00
2018-04-27T02:02:44.029Z,0.00
2018-04-27T02:03:43.957Z,0.00
2018-04-27T02:04:43.946Z,0.00
2018-04-27T02:05:43.883Z,0.00
2018-04-27T02:06:43.822Z,0.00
2018-04-27T02:07:43.795Z,0.00
2018-04-27T02:08:43.744Z,0.00
2018-04-27T02:09:43.728Z,0.00
2018-04-27T02:10:43.637Z,0.00
2018-04-27T02:11:43.585Z,0.00
2018-04-27T02:12:43.549Z,0.00
2018-04-27T02:13:43.505Z,0.00
2018-04-27T02:14:43.500Z,0.00
2018-04-27T02:15:43.430Z,0.00
2018-04-27T02:16:43.383Z,0.00
2018-04-27T02:17:43.376Z,0.00
2018-04-27T02:18:43.291Z,0.00
2018-04-27T02:19:43.278Z,0.00
2018-04-27T02:20:43.207Z,0.00
2018-04-27T02:21:43.159Z,0.00
2018-04-27T02:22:43.123Z,0.00
2018-04-27T02:23:43.080Z,0.00
2018-04-27T02:24:43.059Z,0.00
2018-04-27T02:25:42.999Z,0.00
2018-04-27T02:26:42.963Z,0.00
2018-04-27T02:27:42.923Z,0.00
2018-04-27T02:28:42.888Z,0.00
2018-04-27T02:29:42.869Z,0.00
2018-04-27T02:30:42.781Z,0.00
2018-04-27T02:31:42.770Z,0.00
2018-04-27T02:32:42.717Z,0.00
2018-04-27T02:33:42.684Z,0.00
2018-04-27T02:34:42.622Z,0.00
2018-04-27T02:35:42.585Z,0.00
2018-04-27T02:36:42.553Z,0.00
2018-04-27T02:37:42.522Z,0.00
2018-04-27T02:38:42.467Z,0.00
2018-04-27T02:39:42.398Z,0.00
2018-04-27T02:40:42.352Z,0.00
2018-04-27T02:41:42.320Z,0.00
2018-04-27T02:42:42.306Z,0.00
2018-04-27T02:43:42.251Z,0.00
2018-04-27T02:44:42.192Z,0.00
2018-04-27T02:45:42.145Z,0.00
2018-04-27T02:46:42.099Z,0.00
2018-04-27T02:47:42.072Z,0.00
2018-04-27T02:48:42.053Z,0.00
2018-04-27T02:49:41.961Z,0.00
2018-04-27T02:50:41.941Z,0.00
2018-04-27T02:51:41.890Z,0.00
2018-04-27T02:52:41.893Z,0.00
2018-04-27T02:53:41.827Z,0.00
2018-04-27T02:54:41.774Z,0.00
2018-04-27T02:55:41.707Z,0.00
2018-04-27T02:56:41.709Z,0.00
2018-04-27T02:57:41.638Z,0.00
2018-04-27T02:58:41.623Z,0.00
2018-04-27T02:59:41.584Z,0.00
2018-04-27T03:00:41.526Z,0.00
2018-04-27T03:01:41.460Z,0.00
2018-04-27T03:02:41.428Z,0.00
2018-04-27T03:03:41.394Z,0.00
2018-04-27T03:04:41.339Z,0.00
2018-04-27T03:05:41.325Z,0.00
2018-04-27T03:06:41.249Z,0.00
2018-04-27T03:07:41.254Z,0.00
2018-04-27T03:08:41.206Z,0.00
2018-04-27T03:09:41.123Z,0.00
2018-04-27T03:10:41.077Z,0.00
2018-04-27T03:11:41.041Z,0.00
2018-04-27T03:12:41.005Z,0.00
2018-04-27T03:13:40.944Z,0.00
2018-04-27T03:14:40.947Z,0.00
2018-04-27T03:15:40.865Z,0.00
2018-04-27T03:16:40.819Z,0.00
2018-04-27T03:17:40.777Z,0.00
2018-04-27T03:18:40.744Z,0.00
2018-04-27T03:19:40.729Z,0.00
2018-04-27T03:20:40.667Z,0.00
2018-04-27T03:21:40.646Z,0.00
2018-04-27T03:22:40.596Z,0.00
2018-04-27T03:23:40.570Z,0.00
2018-04-27T03:24:40.508Z,0.00
2018-04-27T03:25:40.439Z,0.00
2018-04-27T03:26:40.453Z,0.00
2018-04-27T03:27:40.364Z,0.00
2018-04-27T03:28:40.328Z,0.00
2018-04-27T03:29:40.343Z,0.00
2018-04-27T03:30:40.237Z,0.00
2018-04-27T03:31:40.208Z,0.00
2018-04-27T03:32:40.196Z,0.00
2018-04-27T03:33:40.123Z,0.00
2018-04-27T03:34:40.106Z,0.00
2018-04-27T03:35:40.029Z,0.00
2018-04-27T03:36:39.986Z,0.00
2018-04-27T03:37:39.946Z,0.00
2018-04-27T03:38:39.897Z,0.00
2018-04-27T03:39:39.861Z,0.00
2018-04-27T03:40:39.831Z,0.00
2018-04-27T03:41:39.773Z,0.00
2018-04-27T03:42:39.760Z,0.00
2018-04-27T03:43:39.684Z,0.00
2018-04-27T03:44:39.637Z,0.00
2018-04-27T03:45:39.622Z,0.00
2018-04-27T03:46:39.572Z,0.00
2018-04-27T03:47:39.514Z,0.00
2018-04-27T03:48:39.479Z,0.00
2018-04-27T03:49:39.430Z,0.00
2018-04-27T03:50:39.409Z,0.00
2018-04-27T03:51:39.358Z,0.00
2018-04-27T03:52:39.319Z,0.00
2018-04-27T03:53:39.265Z,0.00
2018-04-27T03:54:39.240Z,0.00
2018-04-27T03:55:39.197Z,0.00
2018-04-27T03:56:39.133Z,0.00
2018-04-27T03:57:39.086Z,0.00
2018-04-27T03:58:39.059Z,0.00
2018-04-27T03:59:39.075Z,0.00
2018-04-27T04:00:39.009Z,0.00
2018-04-27T04:01:38.964Z,0.00
2018-04-27T04:02:38.882Z,5.63
2018-04-27T04:03:38.888Z,5.63
2018-04-27T04:04:38.867Z,5.63
2018-04-27T04:05:38.794Z,5.63
2018-04-27T04:06:38.757Z,5.63
2018-04-27T04:07:38.684Z,5.63
2018-04-27T04:08:38.628Z,5.63
2018-04-27T04:09:38.583Z,11.25
2018-04-27T04:10:38.581Z,11.25
2018-04-27T04:11:38.527Z,11.25
2018-04-27T04:12:38.453Z,11.25
2018-04-27T04:13:38.418Z,11.25
2018-04-27T04:14:38.370Z,16.88
2018-04-27T04:15:38.321Z,16.88
2018-04-27T04:16:38.346Z,16.88
2018-04-27T04:17:38.240Z,16.88
2018-04-27T04:18:38.190Z,22.50
2018-04-27T04:19:38.183Z,22.50
2018-04-27T04:20:38.130Z,22.50
2018-04-27T04:21:38.093Z,28.13
2018-04-27T04:22:38.033Z,33.75
2018-04-27T04:23:37.988Z,33.75
2018-04-27T04:24:38.004Z,39.38
2018-04-27T04:25:37.893Z,45.00
2018-04-27T04:26:37.901Z,45.00
2018-04-27T04:27:37.840Z,45.00
2018-04-27T04:28:37.788Z,50.63
2018-04-27T04:29:37.745Z,56.25
2018-04-27T04:30:37.676Z,56.25
2018-04-27T04:31:37.636Z,61.88
2018-04-27T04:32:37.616Z,61.88
2018-04-27T04:33:37.570Z,67.50
2018-04-27T04:34:37.521Z,67.50
2018-04-27T04:35:37.478Z,67.50
2018-04-27T04:36:37.435Z,73.13
2018-04-27T04:37:37.414Z,84.38
2018-04-27T04:38:37.358Z,90.00
2018-04-27T04:39:37.302Z,90.00
2018-04-27T04:40:37.265Z,90.00
2018-04-27T04:41:37.211Z,95.63
2018-04-27T04:42:37.193Z,101.25
2018-04-27T04:43:37.146Z,106.88
2018-04-27T04:44:37.137Z,112.50
2018-04-27T04:45:37.044Z,118.13
2018-04-27T04:46:37.015Z,123.75
2018-04-27T04:47:36.997Z,129.38
2018-04-27T04:48:36.996Z,135.00
2018-04-27T04:49:36.899Z,140.63
2018-04-27T04:50:36.860Z,146.25
2018-04-27T04:51:36.800Z,151.88
2018-04-27T04:52:36.788Z,151.88
2018-04-27T04:53:36.773Z,151.88
2018-04-27T04:54:36.669Z,157.50
2018-04-27T04:55:36.624Z,157.50
2018-04-27T04:56:36.608Z,163.13
2018-04-27T04:57:36.588Z,168.75
2018-04-27T04:58:36.514Z,168.75
2018-04-27T04:59:36.462Z,168.75
2018-04-27T05:00:36.409Z,168.75
2018-04-27T05:01:36.363Z,174.38
2018-04-27T05:02:36.319Z,180.00
2018-04-27T05:03:36.322Z,180.00
2018-04-27T05:04:36.228Z,185.63
2018-04-27T05:05:36.185Z,185.63
2018-04-27T05:06:36.165Z,191.25
2018-04-27T05:07:36.127Z,202.50
2018-04-27T05:08:36.097Z,208.13
2018-04-27T05:09:36.039Z,219.38
2018-04-27T05:10:36.027Z,230.63
2018-04-27T05:11:35.978Z,225.00
2018-04-27T05:12:35.917Z,213.75
2018-04-27T05:13:35.935Z,213.75
2018-04-27T05:14:35.841Z,219.38
2018-04-27T05:15:35.771Z,219.38
2018-04-27T05:16:35.779Z,225.00
2018-04-27T05:17:35.698Z,230.63
2018-04-27T05:18:35.684Z,230.63
2018-04-27T05:19:35.605Z,236.25
2018-04-27T05:20:35.574Z,253.13
2018-04-27T05:21:35.525Z,253.13
2018-04-27T05:22:35.476Z,281.25
2018-04-27T05:23:35.453Z,286.88
2018-04-27T05:24:35.422Z,309.38
2018-04-27T05:25:35.351Z,309.38
2018-04-27T05:26:35.317Z,303.75
2018-04-27T05:27:35.272Z,303.75
2018-04-27T05:28:35.234Z,309.38
2018-04-27T05:29:35.225Z,309.38
2018-04-27T05:30:35.150Z,320.63
2018-04-27T05:31:35.110Z,337.50
2018-04-27T05:32:35.069Z,343.13
2018-04-27T05:33:35.033Z,360.00
2018-04-27T05:34:35.013Z,365.63
2018-04-27T05:35:34.975Z,393.75
2018-04-27T05:36:34.903Z,405.00
2018-04-27T05:37:34.855Z,421.88
2018-04-27T05:38:34.824Z,427.50
2018-04-27T05:39:34.805Z,410.63
2018-04-27T05:40:34.795Z,405.00
2018-04-27T05:41:34.715Z,399.38
2018-04-27T05:42:34.694Z,399.38
2018-04-27T05:43:34.651Z,393.75
2018-04-27T05:44:34.593Z,393.75
2018-04-27T05:45:34.562Z,399.38
2018-04-27T05:46:34.511Z,405.00
2018-04-27T05:47:34.481Z,433.13
2018-04-27T05:48:34.433Z,455.63
2018-04-27T05:49:34.376Z,483.75
2018-04-27T05:50:34.379Z,506.25
2018-04-27T05:51:34.294Z,511.88
2018-04-27T05:52:34.253Z,528.75
2018-04-27T05:53:34.211Z,511.88
2018-04-27T05:54:34.178Z,528.75
2018-04-27T05:55:34.220Z,540.00
2018-04-27T05:56:34.114Z,562.50
2018-04-27T05:57:34.082Z,562.50
2018-04-27T05:58:34.022Z,551.25
2018-04-27T05:59:33.978Z,624.38
2018-04-27T06:00:33.963Z,618.75
2018-04-27T06:01:33.914Z,573.75
2018-04-27T06:02:33.857Z,624.38
2018-04-27T06:03:33.831Z,646.88
2018-04-27T06:04:33.856Z,624.38
2018-04-27T06:05:33.743Z,669.38
2018-04-27T06:06:33.749Z,635.63
2018-04-27T06:07:33.691Z,669.38
2018-04-27T06:08:33.626Z,686.25
2018-04-27T06:09:33.599Z,675.00
2018-04-27T06:10:33.553Z,714.38
2018-04-27T06:11:33.551Z,720.00
2018-04-27T06:12:33.487Z,675.00
2018-04-27T06:13:33.463Z,720.00
2018-04-27T06:14:33.425Z,720.00
2018-04-27T06:15:34.190Z,703.13
2018-04-27T06:16:33.363Z,669.38
2018-04-27T06:17:33.302Z,708.75
2018-04-27T06:18:33.265Z,714.38
2018-04-27T06:19:33.229Z,731.25
2018-04-27T06:20:33.191Z,618.75
2018-04-27T06:21:33.177Z,590.63
2018-04-27T06:22:33.136Z,691.88
2018-04-27T06:23:33.085Z,703.13
2018-04-27T06:24:33.045Z,787.50
2018-04-27T06:25:33.011Z,703.13
2018-04-27T06:26:32.980Z,714.38
2018-04-27T06:27:32.970Z,770.63
2018-04-27T06:28:32.909Z,675.00
2018-04-27T06:29:32.865Z,736.88
2018-04-27T06:30:32.837Z,810.00
2018-04-27T06:31:32.797Z,781.88
2018-04-27T06:32:32.789Z,691.88
2018-04-27T06:33:32.745Z,680.63
2018-04-27T06:34:32.701Z,787.50
2018-04-27T06:35:32.656Z,714.38
2018-04-27T06:36:32.611Z,922.50
2018-04-27T06:37:32.612Z,832.50
2018-04-27T06:38:32.546Z,776.25
2018-04-27T06:39:32.527Z,877.50
2018-04-27T06:40:32.480Z,1040.63
2018-04-27T06:41:32.462Z,1063.13
2018-04-27T06:42:32.441Z,1136.25
2018-04-27T06:43:32.403Z,1186.88
2018-04-27T06:44:32.342Z,1209.38
2018-04-27T06:45:32.322Z,1175.63
2018-04-27T06:46:32.304Z,1006.88
2018-04-27T06:47:32.231Z,1119.38
2018-04-27T06:48:32.241Z,1344.38
2018-04-27T06:49:32.166Z,1344.38
2018-04-27T06:50:32.132Z,1271.25
2018-04-27T06:51:32.112Z,1220.63
2018-04-27T06:52:32.042Z,1305.00
2018-04-27T06:53:32.037Z,1153.13
2018-04-27T06:54:31.981Z,1035.00
2018-04-27T06:55:31.956Z,1130.63
2018-04-27T06:56:31.929Z,1141.88
2018-04-27T06:57:31.904Z,1130.63
2018-04-27T06:58:31.890Z,1119.38
2018-04-27T06:59:31.875Z,1175.63
2018-04-27T07:00:31.755Z,1186.88
2018-04-27T07:01:31.717Z,1316.25
2018-04-27T07:02:31.713Z,1305.00
2018-04-27T07:03:31.723Z,1451.25
2018-04-27T07:04:31.642Z,1344.38
2018-04-27T07:05:31.607Z,1175.63
2018-04-27T07:06:31.557Z,1085.63
2018-04-27T07:07:31.533Z,1040.63
2018-04-27T07:08:31.499Z,1057.50
2018-04-27T07:09:31.445Z,1068.75
2018-04-27T07:10:31.404Z,1068.75
2018-04-27T07:11:31.372Z,1057.50
2018-04-27T07:12:31.370Z,1102.50
2018-04-27T07:13:31.431Z,1096.88
2018-04-27T07:14:31.297Z,1102.50
2018-04-27T07:15:31.256Z,1085.63
2018-04-27T07:16:31.341Z,1091.25
2018-04-27T07:17:31.173Z,1096.88
2018-04-27T07:18:31.174Z,1023.75
2018-04-27T07:19:31.131Z,995.63
2018-04-27T07:20:31.067Z,961.88
2018-04-27T07:21:31.036Z,973.13
2018-04-27T07:22:30.991Z,1006.88
2018-04-27T07:23:30.978Z,1040.63
2018-04-27T07:24:30.946Z,1063.13
2018-04-27T07:25:30.872Z,1074.38
2018-04-27T07:26:30.855Z,1153.13
2018-04-27T07:27:30.800Z,1136.25
2018-04-27T07:28:30.768Z,1113.75
2018-04-27T07:29:30.748Z,1130.63
2018-04-27T07:30:30.692Z,1096.88
2018-04-27T07:31:30.661Z,1085.63
2018-04-27T07:32:30.626Z,1080.00
2018-04-27T07:33:30.611Z,1102.50
2018-04-27T07:34:30.574Z,1006.88
2018-04-27T07:35:30.519Z,1080.00
2018-04-27T07:36:30.491Z,1102.50
2018-04-27T07:37:30.460Z,1136.25
2018-04-27T07:38:30.404Z,1136.25
2018-04-27T07:39:30.419Z,1108.13
2018-04-27T07:40:30.335Z,1113.75
2018-04-27T07:41:30.311Z,1091.25
2018-04-27T07:42:30.262Z,1035.00
2018-04-27T07:43:30.258Z,1012.50
2018-04-27T07:44:30.192Z,1001.25
2018-04-27T07:45:30.188Z,1023.75
2018-04-27T07:46:30.132Z,1057.50
2018-04-27T07:47:30.100Z,1096.88
2018-04-27T07:48:30.051Z,1153.13
2018-04-27T07:49:30.013Z,1119.38
2018-04-27T07:50:30.007Z,1147.50
2018-04-27T07:51:29.949Z,1175.63
2018-04-27T07:52:29.902Z,1186.88
2018-04-27T07:53:29.884Z,1186.88
2018-04-27T07:54:29.846Z,1215.00
2018-04-27T07:55:29.844Z,1125.00
2018-04-27T07:56:29.760Z,1096.88
2018-04-27T07:57:29.721Z,1074.38
2018-04-27T07:58:29.688Z,1108.13
2018-04-27T07:59:29.656Z,1130.63
2018-04-27T08:00:29.622Z,1237.50
2018-04-27T08:01:29.622Z,1192.50
2018-04-27T08:02:29.590Z,1361.25
2018-04-27T08:03:29.516Z,1316.25
2018-04-27T08:04:29.470Z,1243.13
2018-04-27T08:05:29.443Z,1366.88
2018-04-27T08:06:29.431Z,1389.38
2018-04-27T08:07:29.392Z,1355.63
2018-04-27T08:08:29.363Z,1254.38
2018-04-27T08:09:29.304Z,1243.13
2018-04-27T08:10:29.283Z,1271.25
2018-04-27T08:11:29.256Z,1299.38
2018-04-27T08:12:29.213Z,1237.50
2018-04-27T08:13:29.213Z,1198.13
2018-04-27T08:14:29.135Z,1181.25
2018-04-27T08:15:29.097Z,1260.00
2018-04-27T08:16:29.121Z,1203.75
2018-04-27T08:17:29.026Z,1226.25
2018-04-27T08:18:28.993Z,1288.13
2018-04-27T08:19:29.013Z,1299.38
2018-04-27T08:20:28.926Z,1327.50
2018-04-27T08:21:29.020Z,1378.13
2018-04-27T08:22:28.883Z,1434.38
2018-04-27T08:23:28.966Z,1507.50
2018-04-27T08:24:28.848Z,1434.38
2018-04-27T08:25:28.747Z,1372.50
2018-04-27T08:26:28.757Z,1344.38
2018-04-27T08:27:28.701Z,1305.00
2018-04-27T08:28:28.646Z,1344.38
2018-04-27T08:29:28.633Z,1411.88
2018-04-27T08:30:28.600Z,1327.50
2018-04-27T08:31:28.556Z,1305.00
2018-04-27T08:32:28.534Z,1378.13
2018-04-27T08:33:28.489Z,1485.00
2018-04-27T08:34:28.424Z,1485.00
2018-04-27T08:35:28.403Z,1513.13
2018-04-27T08:36:28.421Z,1659.38
2018-04-27T08:37:28.367Z,1665.00
2018-04-27T08:38:28.305Z,1603.13
2018-04-27T08:39:28.257Z,1935.00
2018-04-27T08:40:28.214Z,2081.25
2018-04-27T08:41:28.180Z,2553.75
2018-04-27T08:42:28.187Z,3594.38
2018-04-27T08:43:28.120Z,2829.38
2018-04-27T08:44:28.079Z,3144.38
2018-04-27T08:45:28.050Z,2660.63
2018-04-27T08:46:28.016Z,2649.38
2018-04-27T08:47:27.975Z,2812.50
2018-04-27T08:48:27.968Z,1963.13
2018-04-27T08:49:27.919Z,1822.50
2018-04-27T08:50:27.883Z,2070.00
2018-04-27T08:51:27.848Z,2188.13
2018-04-27T08:52:27.838Z,2351.25
2018-04-27T08:53:27.782Z,2469.38
2018-04-27T08:54:27.741Z,2233.13
2018-04-27T08:55:27.702Z,2452.50
2018-04-27T08:56:27.678Z,2210.63
2018-04-27T08:57:27.647Z,1968.75
2018-04-27T08:58:27.625Z,2098.13
2018-04-27T08:59:27.581Z,1957.50
2018-04-27T09:00:27.546Z,2041.88
2018-04-27T09:01:27.509Z,2086.88
2018-04-27T09:02:27.475Z,1912.50
2018-04-27T09:03:27.461Z,2008.13
2018-04-27T09:04:27.403Z,2283.75
2018-04-27T09:05:27.366Z,2323.13
2018-04-27T09:06:27.340Z,1957.50
2018-04-27T09:07:27.317Z,1698.75
2018-04-27T09:08:27.303Z,1822.50
2018-04-27T09:09:27.241Z,1918.13
2018-04-27T09:10:27.194Z,1890.00
2018-04-27T09:11:27.173Z,1833.75
2018-04-27T09:12:27.133Z,759.38
2018-04-27T09:13:27.099Z,1738.13
2018-04-27T09:14:27.085Z,1833.75
2018-04-27T09:15:27.031Z,1783.13
2018-04-27T09:16:26.996Z,2115.00
2018-04-27T09:17:26.960Z,2340.00
2018-04-27T09:18:26.932Z,2036.25
2018-04-27T09:19:26.916Z,2379.38
2018-04-27T09:20:26.864Z,2143.13
2018-04-27T09:21:26.820Z,1996.88
2018-04-27T09:22:26.779Z,2036.25
2018-04-27T09:23:26.750Z,2013.75
2018-04-27T09:24:26.736Z,2081.25
2018-04-27T09:25:26.679Z,2227.50
2018-04-27T09:26:26.659Z,2171.25
2018-04-27T09:27:26.610Z,2154.38
2018-04-27T09:28:26.585Z,2458.13
2018-04-27T09:29:26.573Z,2160.00
2018-04-27T09:30:26.516Z,2385.00
2018-04-27T09:31:26.483Z,2565.00
2018-04-27T09:32:26.449Z,2255.63
2018-04-27T09:33:26.421Z,2390.63
2018-04-27T09:34:26.376Z,2700.00
2018-04-27T09:35:26.364Z,2716.88
2018-04-27T09:36:26.311Z,2435.63
2018-04-27T09:37:26.267Z,2446.88
2018-04-27T09:38:26.242Z,2570.63
2018-04-27T09:39:26.198Z,2368.13
2018-04-27T09:40:26.210Z,2075.63
2018-04-27T09:41:26.147Z,2086.88
2018-04-27T09:42:26.106Z,2165.63
2018-04-27T09:43:26.074Z,2131.88
2018-04-27T09:44:26.036Z,1974.38
2018-04-27T09:45:26.025Z,2323.13
2018-04-27T09:46:25.972Z,2210.63
2018-04-27T09:47:25.938Z,2401.88
2018-04-27T09:48:25.911Z,2362.50
2018-04-27T09:49:25.918Z,1963.13
2018-04-27T09:50:25.861Z,1996.88
2018-04-27T09:51:25.807Z,2143.13
2018-04-27T09:52:25.789Z,2199.38
2018-04-27T09:53:25.749Z,2300.63
2018-04-27T09:54:25.700Z,2317.50
2018-04-27T09:55:25.694Z,2115.00
2018-04-27T09:56:25.655Z,1996.88
2018-04-27T09:57:25.646Z,2143.13
2018-04-27T09:58:25.567Z,2441.25
2018-04-27T09:59:25.528Z,2626.88
2018-04-27T10:00:25.529Z,2407.50
2018-04-27T10:01:25.474Z,2514.38
2018-04-27T10:02:25.425Z,2643.75
2018-04-27T10:03:25.408Z,2570.63
2018-04-27T10:04:25.369Z,2975.63
2018-04-27T10:05:25.337Z,2857.50
2018-04-27T10:06:25.325Z,2598.75
2018-04-27T10:07:25.272Z,2857.50
2018-04-27T10:08:25.229Z,2407.50
2018-04-27T10:09:25.195Z,2362.50
2018-04-27T10:10:25.167Z,2221.88
2018-04-27T10:11:25.156Z,2160.00
2018-04-27T10:12:25.110Z,2092.50
2018-04-27T10:13:25.078Z,2356.88
2018-04-27T10:14:25.038Z,2649.38
2018-04-27T10:15:25.009Z,2655.00
2018-04-27T10:16:24.994Z,2801.25
2018-04-27T10:17:24.932Z,2829.38
2018-04-27T10:18:24.901Z,2666.25
2018-04-27T10:19:24.864Z,2700.00
2018-04-27T10:20:24.844Z,2649.38
2018-04-27T10:21:24.825Z,2778.75
2018-04-27T10:22:24.778Z,3414.38
2018-04-27T10:23:24.736Z,3245.63
2018-04-27T10:24:24.717Z,3313.13
2018-04-27T10:25:24.682Z,3076.88
2018-04-27T10:26:24.643Z,2806.88
2018-04-27T10:27:24.633Z,2401.88
2018-04-27T10:28:24.585Z,2368.13
2018-04-27T10:29:24.576Z,2171.25
2018-04-27T10:30:24.513Z,2036.25
2018-04-27T10:31:24.505Z,1912.50
2018-04-27T10:32:24.457Z,1861.88
2018-04-27T10:33:24.420Z,1901.25
2018-04-27T10:34:24.383Z,1957.50
2018-04-27T10:35:24.357Z,2025.00
2018-04-27T10:36:24.328Z,2221.88
2018-04-27T10:37:24.312Z,2098.13
2018-04-27T10:38:24.254Z,2345.63
2018-04-27T10:39:24.229Z,2328.75
2018-04-27T10:40:24.194Z,2576.25
2018-04-27T10:41:24.159Z,2840.63
2018-04-27T10:42:24.156Z,2745.00
2018-04-27T10:43:24.089Z,2570.63
2018-04-27T10:44:24.065Z,2728.13
2018-04-27T10:45:24.044Z,2722.50
2018-04-27T10:46:23.993Z,2626.88
2018-04-27T10:47:23.988Z,2784.38
2018-04-27T10:48:23.937Z,2857.50
2018-04-27T10:49:23.899Z,3138.75
2018-04-27T10:50:23.878Z,2930.63
2018-04-27T10:51:23.830Z,2913.75
2018-04-27T10:52:23.837Z,2790.00
2018-04-27T10:53:23.769Z,2542.50
2018-04-27T10:54:23.752Z,2362.50
2018-04-27T10:55:23.724Z,2520.00
2018-04-27T10:56:23.689Z,2503.13
2018-04-27T10:57:23.668Z,2334.38
2018-04-27T10:58:23.618Z,2368.13
2018-04-27T10:59:23.583Z,2373.75
2018-04-27T11:00:23.550Z,2407.50
2018-04-27T11:01:23.600Z,2311.88
2018-04-27T11:02:23.530Z,2272.50
2018-04-27T11:03:23.521Z,2182.50
2018-04-27T11:04:23.425Z,2041.88
2018-04-27T11:05:23.392Z,2041.88
2018-04-27T11:06:23.367Z,2143.13
2018-04-27T11:07:23.397Z,1980.00
2018-04-27T11:08:23.300Z,1963.13
2018-04-27T11:09:23.265Z,1766.25
2018-04-27T11:10:23.229Z,1951.88
2018-04-27T11:11:23.209Z,2086.88
2018-04-27T11:12:23.191Z,2115.00
2018-04-27T11:13:23.138Z,1968.75
2018-04-27T11:14:23.114Z,1884.38
2018-04-27T11:15:23.075Z,1946.25
2018-04-27T11:16:23.039Z,2025.00
2018-04-27T11:17:23.036Z,2446.88
2018-04-27T11:18:22.979Z,2086.88
2018-04-27T11:19:22.943Z,1985.63
2018-04-27T11:20:22.911Z,2041.88
2018-04-27T11:21:22.876Z,2053.13
2018-04-27T11:22:22.868Z,3487.50
2018-04-27T11:23:22.811Z,3892.50
2018-04-27T11:24:22.792Z,3836.25
2018-04-27T11:25:22.745Z,3060.00
2018-04-27T11:26:22.724Z,2745.00
2018-04-27T11:27:22.710Z,2655.00
2018-04-27T11:28:22.663Z,2396.25
2018-04-27T11:29:22.623Z,3616.88
2018-04-27T11:30:22.595Z,2626.88
2018-04-27T11:31:22.566Z,3133.13
2018-04-27T11:32:22.550Z,3324.38
2018-04-27T11:33:22.500Z,3515.63
2018-04-27T11:34:22.461Z,3796.88
2018-04-27T11:35:22.436Z,2401.88
2018-04-27T11:36:22.405Z,2604.38
2018-04-27T11:37:22.402Z,2930.63
2018-04-27T11:38:22.332Z,3268.13
2018-04-27T11:39:22.306Z,3605.63
2018-04-27T11:40:22.267Z,3476.25
2018-04-27T11:41:22.289Z,3616.88
2018-04-27T11:42:22.223Z,3476.25
2018-04-27T11:43:22.210Z,3060.00
2018-04-27T11:44:22.143Z,3296.25
2018-04-27T11:45:22.150Z,3358.13
2018-04-27T11:46:22.090Z,4055.63
2018-04-27T11:47:22.056Z,3341.25
2018-04-27T11:48:22.053Z,2677.50
2018-04-27T11:49:22.016Z,2491.88
2018-04-27T11:50:21.960Z,2632.50
2018-04-27T11:51:21.941Z,3234.38
2018-04-27T11:52:21.906Z,3003.75
2018-04-27T11:53:21.983Z,2081.25
2018-04-27T11:54:21.850Z,1935.00
2018-04-27T11:55:21.810Z,2677.50
2018-04-27T11:56:21.779Z,2255.63
2018-04-27T11:57:21.747Z,1951.88
2018-04-27T11:58:21.751Z,1850.63
2018-04-27T11:59:21.692Z,1591.88
2018-04-27T12:00:21.658Z,1513.13
2018-04-27T12:01:21.625Z,1513.13
2018-04-27T12:02:21.600Z,1575.00
2018-04-27T12:03:21.570Z,1676.25
2018-04-27T12:04:21.549Z,2441.25
2018-04-27T12:05:21.492Z,2317.50
2018-04-27T12:06:21.476Z,3088.13
2018-04-27T12:07:21.438Z,2424.38
2018-04-27T12:08:21.411Z,2503.13
2018-04-27T12:09:21.388Z,1968.75
2018-04-27T12:10:21.340Z,1940.63
2018-04-27T12:11:21.306Z,2025.00
2018-04-27T12:12:21.279Z,2086.88
2018-04-27T12:13:21.245Z,1861.88
2018-04-27T12:14:21.228Z,1800.00
2018-04-27T12:15:21.185Z,1856.25
2018-04-27T12:16:21.162Z,2205.00
2018-04-27T12:17:21.115Z,2064.38
2018-04-27T12:18:21.090Z,2154.38
2018-04-27T12:19:21.072Z,1822.50
2018-04-27T12:20:21.061Z,1738.13
2018-04-27T12:21:20.993Z,1738.13
2018-04-27T12:22:20.966Z,1833.75
2018-04-27T12:23:20.923Z,1805.63
2018-04-27T12:24:20.976Z,1890.00
2018-04-27T12:25:20.851Z,2182.50
2018-04-27T12:26:20.833Z,1715.63
2018-04-27T12:27:20.809Z,2531.25
2018-04-27T12:28:20.766Z,3251.25
2018-04-27T12:29:20.749Z,1676.25
2018-04-27T12:30:20.702Z,1766.25
2018-04-27T12:31:20.696Z,1991.25
2018-04-27T12:32:20.629Z,2345.63
2018-04-27T12:33:20.610Z,1957.50
2018-04-27T12:34:20.578Z,1985.63